Time,TemperatureF,DewpointF,PressureIn,WindDirection,WindDirectionDegrees,WindSpeedMPH,WindSpeedGustMPH,Humidity,HourlyPrecipIn,Conditions,Clouds,dailyrainin,SoftwareType,DateUTC
2013-01-03 00:15:00,40.3,39.8,29.92,NE,45,0.0,-999.0,98,-99.99,,,0.00,Acu-Link.com,2013-01-03 05:15:00,
2013-01-03 00:30:00,40.3,39.8,29.92,ESE,112,0.0,-999.0,98,-99.99,,,0.00,Acu-Link.com,2013-01-03 05:30:00,
2013-01-03 00:46:00,40.3,39.8,29.92,SSE,157,0.0,-999.0,98,-99.99,,,0.00,Acu-Link.com,2013-01-03 05:46:00,
2013-01-03 01:02:00,40.3,39.8,29.94,West,270,1.7,-999.0,98,-99.99,,,0.00,Acu-Link.com,2013-01-03 06:02:00,
2013-01-03 01:17:00,41.0,40.5,29.94,WSW,247,0.0,-999.0,98,-99.99,,,0.00,Acu-Link.com,2013-01-03 06:17:00,
2013-01-03 01:32:00,41.4,40.9,29.94,WSW,247,0.0,-999.0,98,-99.99,,,0.00,Acu-Link.com,2013-01-03 06:32:00,
2013-01-03 01:47:00,41.2,40.7,29.93,ENE,67,0.0,-999.0,98,-99.99,,,0.00,Acu-Link.com,2013-01-03 06:47:00,
2013-01-03 02:03:00,41.0,40.5,29.93,SW,225,0.0,-999.0,98,-99.99,,,0.00,Acu-Link.com,2013-01-03 07:03:00,
2013-01-03 02:18:00,40.8,40.3,29.94,East,90,1.7,-999.0,98,-99.99,,,0.00,Acu-Link.com,2013-01-03 07:18:00,
2013-01-03 02:33:00,40.6,40.1,29.93,SE,135,0.0,-999.0,98,-99.99,,,0.00,Acu-Link.com,2013-01-03 07:33:00,
2013-01-03 02:48:00,40.3,39.8,29.93,East,90,0.0,-999.0,98,-99.99,,,0.00,Acu-Link.com,2013-01-03 07:48:00,
2013-01-03 03:03:00,40.1,39.6,29.92,South,180,0.0,-999.0,98,-99.99,,,0.00,Acu-Link.com,2013-01-03 08:03:00,
2013-01-03 03:19:00,40.1,39.6,29.93,East,90,0.0,-999.0,98,-99.99,,,0.00,Acu-Link.com,2013-01-03 08:19:00,
2013-01-03 03:34:00,39.9,39.4,29.94,NW,315,0.0,-999.0,98,-99.99,,,0.00,Acu-Link.com,2013-01-03 08:34:00,
2013-01-03 03:49:00,39.7,39.2,29.92,ESE,112,1.7,-999.0,98,-99.99,,,0.00,Acu-Link.com,2013-01-03 08:49:00,
2013-01-03 04:09:00,39.7,39.2,29.94,East,90,2.2,-999.0,98,-99.99,,,0.00,Acu-Link.com,2013-01-03 09:09:00,
2013-01-03 04:25:00,39.7,39.2,29.94,ENE,67,1.1,-999.0,98,-99.99,,,0.00,Acu-Link.com,2013-01-03 09:25:00,
2013-01-03 04:40:00,39.7,39.2,29.92,West,270,1.1,-999.0,98,-99.99,,,0.00,Acu-Link.com,2013-01-03 09:40:00,
2013-01-03 04:55:00,39.7,39.2,29.93,South,180,0.0,-999.0,98,-99.99,,,0.00,Acu-Link.com,2013-01-03 09:55:00,
2013-01-03 05:12:00,39.6,39.1,29.94,East,90,0.0,-999.0,98,-99.99,,,0.00,Acu-Link.com,2013-01-03 10:12:00,
2013-01-03 05:27:00,39.4,38.9,29.94,East,90,0.0,-999.0,98,-99.99,,,0.00,Acu-Link.com,2013-01-03 10:27:00,
2013-01-03 05:42:00,38.8,38.3,29.94,East,90,0.0,-999.0,98,-99.99,,,0.00,Acu-Link.com,2013-01-03 10:42:00,
2013-01-03 05:57:00,38.5,38.0,29.95,West,270,0.0,-999.0,98,-99.99,,,0.00,Acu-Link.com,2013-01-03 10:57:00,
2013-01-03 06:13:00,38.5,38.0,29.95,East,90,1.7,-999.0,98,-99.99,,,0.00,Acu-Link.com,2013-01-03 11:13:00,
2013-01-03 06:28:00,38.1,37.6,29.95,SW,225,1.1,-999.0,98,-99.99,,,0.00,Acu-Link.com,2013-01-03 11:28:00,
2013-01-03 06:43:00,38.1,37.6,29.96,West,270,0.0,-999.0,98,-99.99,,,0.00,Acu-Link.com,2013-01-03 11:43:00,
2013-01-03 06:58:00,38.5,38.0,29.95,West,270,0.0,-999.0,98,-99.99,,,0.00,Acu-Link.com,2013-01-03 11:58:00,
2013-01-03 07:13:00,38.7,38.2,29.95,SSE,157,1.7,-999.0,98,-99.99,,,0.00,Acu-Link.com,2013-01-03 12:13:00,
2013-01-03 07:29:00,38.7,38.2,29.95,ESE,112,1.7,-999.0,98,-99.99,,,0.00,Acu-Link.com,2013-01-03 12:29:00,
2013-01-03 07:44:00,38.5,38.0,29.96,ENE,67,2.2,-999.0,98,-99.99,,,0.00,Acu-Link.com,2013-01-03 12:44:00,
2013-01-03 07:59:00,37.9,37.4,29.97,West,270,0.0,-999.0,98,-99.99,,,0.00,Acu-Link.com,2013-01-03 12:59:00,
2013-01-03 08:14:00,37.9,37.4,29.97,NW,315,1.1,-999.0,98,-99.99,,,0.00,Acu-Link.com,2013-01-03 13:14:00,
2013-01-03 08:29:00,38.5,38.0,29.96,SSE,157,0.0,-999.0,98,-99.99,,,0.00,Acu-Link.com,2013-01-03 13:29:00,
2013-01-03 08:45:00,38.8,38.0,29.96,ESE,112,1.1,-999.0,97,-99.99,,,0.00,Acu-Link.com,2013-01-03 13:45:00,
2013-01-03 09:00:00,39.4,38.4,29.98,SSE,157,0.0,-999.0,96,-99.99,,,0.00,Acu-Link.com,2013-01-03 14:00:00,
2013-01-03 09:15:00,39.7,38.4,29.98,SSW,202,0.0,-999.0,95,-99.99,,,0.00,Acu-Link.com,2013-01-03 14:15:00,
2013-01-03 09:31:00,39.7,38.1,29.97,West,270,1.1,-999.0,94,-99.99,,,0.00,Acu-Link.com,2013-01-03 14:31:00,
2013-01-03 09:46:00,39.9,38.3,29.99,SE,135,1.1,-999.0,94,-99.99,,,0.00,Acu-Link.com,2013-01-03 14:46:00,
2013-01-03 10:01:00,40.1,38.2,29.99,West,270,0.0,-999.0,93,-99.99,,,0.00,Acu-Link.com,2013-01-03 15:01:00,
2013-01-03 10:16:00,40.5,38.6,29.99,West,270,0.0,-999.0,93,-99.99,,,0.00,Acu-Link.com,2013-01-03 15:16:00,
2013-01-03 10:31:00,41.0,38.9,30.00,West,270,1.1,-999.0,92,-99.99,,,0.00,Acu-Link.com,2013-01-03 15:31:00,
2013-01-03 10:47:00,41.5,38.8,30.01,SW,225,1.7,-999.0,90,-99.99,,,0.00,Acu-Link.com,2013-01-03 15:47:00,
2013-01-03 11:02:00,42.4,39.7,30.01,West,270,2.2,-999.0,90,-99.99,,,0.00,Acu-Link.com,2013-01-03 16:02:00,
2013-01-03 11:17:00,43.0,40.0,30.01,WSW,247,1.1,-999.0,89,-99.99,,,0.00,Acu-Link.com,2013-01-03 16:17:00,
2013-01-03 11:32:00,43.5,40.2,30.00,WSW,247,1.1,-999.0,88,-99.99,,,0.00,Acu-Link.com,2013-01-03 16:32:00,
2013-01-03 11:48:00,43.3,40.3,29.99,West,270,2.2,-999.0,89,-99.99,,,0.00,Acu-Link.com,2013-01-03 16:48:00,
2013-01-03 12:03:00,44.8,40.6,30.00,West,270,2.2,-999.0,85,-99.99,,,0.00,Acu-Link.com,2013-01-03 17:03:00,
2013-01-03 12:18:00,44.8,40.3,29.99,West,270,1.7,-999.0,84,-99.99,,,0.00,Acu-Link.com,2013-01-03 17:18:00,
2013-01-03 12:34:00,44.6,40.1,29.99,WSW,247,1.1,-999.0,84,-99.99,,,0.00,Acu-Link.com,2013-01-03 17:34:00,
2013-01-03 12:49:00,45.0,39.5,29.98,SW,225,1.7,-999.0,81,-99.99,,,0.00,Acu-Link.com,2013-01-03 17:49:00,
2013-01-03 13:04:00,44.8,39.6,29.97,WSW,247,1.7,-999.0,82,-99.99,,,0.00,Acu-Link.com,2013-01-03 18:04:00,
2013-01-03 13:20:00,44.8,39.6,29.96,WSW,247,1.7,-999.0,82,-99.99,,,0.00,Acu-Link.com,2013-01-03 18:20:00,
2013-01-03 13:35:00,45.5,40.3,29.97,West,270,2.7,-999.0,82,-99.99,,,0.00,Acu-Link.com,2013-01-03 18:35:00,
2013-01-03 13:50:00,46.4,40.2,29.97,SW,225,1.1,-999.0,79,-99.99,,,0.00,Acu-Link.com,2013-01-03 18:50:00,
2013-01-03 14:05:00,46.0,40.2,29.97,SW,225,2.2,-999.0,80,-99.99,,,0.00,Acu-Link.com,2013-01-03 19:05:00,
2013-01-03 15:06:00,44.4,39.6,29.98,SW,225,1.1,-999.0,83,-99.99,,,0.00,Acu-Link.com,2013-01-03 20:06:00,
2013-01-03 15:22:00,44.4,39.6,29.99,SSW,202,2.7,-999.0,83,-99.99,,,0.00,Acu-Link.com,2013-01-03 20:22:00,
2013-01-03 15:37:00,44.1,39.0,30.00,West,270,1.7,-999.0,82,-99.99,,,0.00,Acu-Link.com,2013-01-03 20:37:00,
2013-01-03 15:53:00,43.9,39.1,30.00,West,270,1.7,-999.0,83,-99.99,,,0.00,Acu-Link.com,2013-01-03 20:53:00,
2013-01-03 16:08:00,44.1,39.0,30.00,West,270,1.7,-999.0,82,-99.99,,,0.00,Acu-Link.com,2013-01-03 21:08:00,
2013-01-03 16:23:00,43.3,38.5,30.00,SE,135,1.7,-999.0,83,-99.99,,,0.00,Acu-Link.com,2013-01-03 21:23:00,
2013-01-03 16:38:00,43.3,38.2,30.01,SW,225,1.1,-999.0,82,-99.99,,,0.00,Acu-Link.com,2013-01-03 21:38:00,
2013-01-03 16:53:00,42.8,37.7,30.02,West,270,1.7,-999.0,82,-99.99,,,0.00,Acu-Link.com,2013-01-03 21:53:00,
2013-01-03 17:09:00,42.1,37.0,30.03,West,270,2.2,-999.0,82,-99.99,,,0.00,Acu-Link.com,2013-01-03 22:09:00,
2013-01-03 17:24:00,41.2,36.7,30.04,West,270,1.7,-999.0,84,-99.99,,,0.00,Acu-Link.com,2013-01-03 22:24:00,
2013-01-03 17:39:00,40.3,36.2,30.04,SW,225,0.0,-999.0,85,-99.99,,,0.00,Acu-Link.com,2013-01-03 22:39:00,
2013-01-03 17:54:00,38.3,35.9,30.04,West,270,0.0,-999.0,91,-99.99,,,0.00,Acu-Link.com,2013-01-03 22:54:00,
2013-01-03 18:10:00,37.6,34.9,30.04,East,90,3.2,-999.0,90,-99.99,,,0.00,Acu-Link.com,2013-01-03 23:10:00,
2013-01-03 18:25:00,38.1,34.6,30.05,ESE,112,2.7,-999.0,87,-99.99,,,0.00,Acu-Link.com,2013-01-03 23:25:00,
2013-01-03 18:41:00,36.7,34.6,30.06,ESE,112,1.1,-999.0,92,-99.99,,,0.00,Acu-Link.com,2013-01-03 23:41:00,
2013-01-03 18:56:00,35.8,34.0,30.07,ESE,112,0.0,-999.0,93,-99.99,,,0.00,Acu-Link.com,2013-01-03 23:56:00,
2013-01-03 19:12:00,35.1,33.6,30.08,NE,45,1.1,-999.0,94,-99.99,,,0.00,Acu-Link.com,2013-01-04 00:12:00,
2013-01-03 19:27:00,34.3,32.8,30.08,SW,225,0.0,-999.0,94,-99.99,,,0.00,Acu-Link.com,2013-01-04 00:27:00,
2013-01-03 19:42:00,34.0,31.9,30.08,West,270,1.7,-999.0,92,-99.99,,,0.00,Acu-Link.com,2013-01-04 00:42:00,
2013-01-03 19:57:00,33.4,31.6,30.08,South,180,0.0,-999.0,93,-99.99,,,0.00,Acu-Link.com,2013-01-04 00:57:00,
2013-01-03 20:12:00,33.3,31.2,30.08,West,270,1.1,-999.0,92,-99.99,,,0.00,Acu-Link.com,2013-01-04 01:12:00,
2013-01-03 20:28:00,33.6,30.7,30.09,SSW,202,0.0,-999.0,89,-99.99,,,0.00,Acu-Link.com,2013-01-04 01:28:00,
2013-01-03 20:43:00,33.1,31.0,30.09,ENE,67,0.0,-999.0,92,-99.99,,,0.00,Acu-Link.com,2013-01-04 01:43:00,
2013-01-03 20:58:00,32.4,30.6,30.09,SE,135,0.0,-999.0,93,-99.99,,,0.00,Acu-Link.com,2013-01-04 01:58:00,
2013-01-03 21:13:00,31.6,30.1,30.09,East,90,2.2,-999.0,94,-99.99,,,0.00,Acu-Link.com,2013-01-04 02:13:00,
2013-01-03 21:28:00,31.1,29.6,30.09,East,90,2.7,-999.0,94,-99.99,,,0.00,Acu-Link.com,2013-01-04 02:28:00,
2013-01-03 21:44:00,30.7,29.2,30.10,ENE,67,2.7,-999.0,94,-99.99,,,0.00,Acu-Link.com,2013-01-04 02:44:00,
2013-01-03 22:00:00,30.4,29.1,30.10,SW,225,0.0,-999.0,95,-99.99,,,0.00,Acu-Link.com,2013-01-04 03:00:00,
2013-01-03 22:15:00,29.8,28.3,30.10,ESE,112,2.2,-999.0,94,-99.99,,,0.00,Acu-Link.com,2013-01-04 03:15:00,
2013-01-03 22:31:00,29.5,27.7,30.10,East,90,1.7,-999.0,93,-99.99,,,0.00,Acu-Link.com,2013-01-04 03:31:00,
2013-01-03 22:46:00,29.3,27.8,30.11,ENE,67,0.0,-999.0,94,-99.99,,,0.00,Acu-Link.com,2013-01-04 03:46:00,
2013-01-03 23:01:00,29.1,27.3,30.12,ENE,67,2.7,-999.0,93,-99.99,,,0.00,Acu-Link.com,2013-01-04 04:01:00,
2013-01-03 23:16:00,29.8,28.3,30.13,South,180,0.0,-999.0,94,-99.99,,,0.00,Acu-Link.com,2013-01-04 04:16:00,
2013-01-03 23:32:00,30.9,28.9,30.14,East,90,1.7,-999.0,92,-99.99,,,0.00,Acu-Link.com,2013-01-04 04:32:00,
2013-01-03 23:47:00,30.9,28.9,30.14,NNE,22,1.7,-999.0,92,-99.99,,,0.00,Acu-Link.com,2013-01-04 04:47:00,